createdAt,value
2017-06-19T00:00:05.941Z,67.40
2017-06-19T00:02:33.142Z,67.60
2017-06-19T00:05:00.026Z,68.10
2017-06-19T00:07:26.933Z,68.40
2017-06-19T00:09:53.885Z,68.40
2017-06-19T00:12:21.162Z,68.30
2017-06-19T00:14:48.054Z,68.30
2017-06-19T00:17:15.026Z,68.10
2017-06-19T00:19:41.921Z,68.70
2017-06-19T00:22:08.798Z,68.60
2017-06-19T00:24:35.767Z,68.80
2017-06-19T00:27:02.666Z,69.00
2017-06-19T00:29:29.551Z,69.20
2017-06-19T00:31:56.477Z,69.30
2017-06-19T00:34:23.367Z,69.10
2017-06-19T00:36:50.289Z,68.50
2017-06-19T00:39:17.209Z,68.70
2017-06-19T00:41:44.185Z,68.60
2017-06-19T00:44:11.146Z,68.30
2017-06-19T00:46:38.473Z,68.80
2017-06-19T00:49:05.361Z,68.80
2017-06-19T00:51:32.285Z,69.10
2017-06-19T00:53:59.613Z,68.70
2017-06-19T00:56:26.594Z,68.60
2017-06-19T00:58:53.881Z,68.80
2017-06-19T01:01:20.941Z,68.80
2017-06-19T01:03:47.937Z,69.10
2017-06-19T01:06:15.214Z,69.50
2017-06-19T01:08:42.146Z,69.50
2017-06-19T01:11:09.077Z,69.50
2017-06-19T01:13:36.023Z,69.80
2017-06-19T01:16:02.947Z,69.90
2017-06-19T01:18:29.833Z,69.60
2017-06-19T01:20:57.173Z,69.90
2017-06-19T01:23:24.533Z,70.30
2017-06-19T01:25:51.820Z,70.50
2017-06-19T01:28:18.704Z,70.60
2017-06-19T01:30:45.617Z,70.60
2017-06-19T01:33:12.521Z,70.50
2017-06-19T01:35:39.398Z,70.60
2017-06-19T01:38:06.343Z,70.10
2017-06-19T01:40:33.233Z,70.10
2017-06-19T01:43:00.125Z,69.90
2017-06-19T01:45:27.056Z,69.90
2017-06-19T01:47:54.330Z,69.40
2017-06-19T01:50:21.241Z,69.40
2017-06-19T01:52:48.170Z,69.50
2017-06-19T01:55:15.146Z,69.30
2017-06-19T01:57:42.493Z,68.80
2017-06-19T02:00:09.849Z,69.00
2017-06-19T02:02:36.732Z,69.10
2017-06-19T02:05:03.615Z,69.20
2017-06-19T02:07:30.542Z,69.50
2017-06-19T02:09:57.426Z,69.30
2017-06-19T02:12:24.313Z,69.10
2017-06-19T02:14:51.325Z,69.00
2017-06-19T02:17:18.266Z,68.90
2017-06-19T02:19:45.220Z,68.80
2017-06-19T02:22:12.126Z,69.50
2017-06-19T02:24:39.062Z,69.60
2017-06-19T02:27:05.952Z,69.10
2017-06-19T02:29:32.904Z,69.50
2017-06-19T02:32:00.229Z,69.60
2017-06-19T02:34:27.122Z,69.70
2017-06-19T02:36:54.041Z,69.80
2017-06-19T02:39:20.958Z,69.90
2017-06-19T02:41:47.872Z,69.90
2017-06-19T02:44:14.757Z,69.80
2017-06-19T02:46:41.845Z,70.00
2017-06-19T02:49:09.126Z,70.20
2017-06-19T02:51:36.042Z,70.20
2017-06-19T02:54:03.386Z,70.40
2017-06-19T02:56:30.338Z,70.40
2017-06-19T02:58:57.690Z,70.60
2017-06-19T03:01:25.053Z,71.00
2017-06-19T03:03:52.408Z,71.30
2017-06-19T03:06:19.729Z,71.00
2017-06-19T03:08:46.658Z,71.00
2017-06-19T03:11:13.545Z,71.30
2017-06-19T03:13:40.487Z,71.30
2017-06-19T03:16:07.411Z,71.60
2017-06-19T03:18:34.382Z,71.10
2017-06-19T03:21:01.273Z,71.10
2017-06-19T03:23:28.202Z,71.10
2017-06-19T03:25:55.119Z,71.50
2017-06-19T03:28:22.065Z,71.50
2017-06-19T03:30:49.001Z,71.40
2017-06-19T03:33:15.889Z,71.50
2017-06-19T03:35:42.777Z,71.80
2017-06-19T03:38:09.753Z,71.80
2017-06-19T03:40:37.034Z,72.10
2017-06-19T03:43:03.949Z,72.10
2017-06-19T03:45:31.001Z,72.40
2017-06-19T03:47:57.970Z,72.40
2017-06-19T03:50:25.321Z,72.00
2017-06-19T03:52:52.636Z,72.00
2017-06-19T03:55:19.549Z,72.00
2017-06-19T03:57:46.473Z,71.80
2017-06-19T04:00:13.365Z,71.90
2017-06-19T04:02:40.253Z,72.30
2017-06-19T04:05:07.585Z,72.30
2017-06-19T04:07:34.474Z,72.30
2017-06-19T04:10:01.427Z,72.10
2017-06-19T04:12:28.442Z,72.40
2017-06-19T04:14:55.801Z,72.50
2017-06-19T04:17:23.153Z,72.30
2017-06-19T04:19:50.113Z,72.30
2017-06-19T04:22:17.453Z,72.70
2017-06-19T04:24:44.340Z,72.70
2017-06-19T04:27:11.967Z,72.70
2017-06-19T04:29:39.356Z,72.40
2017-06-19T04:32:06.245Z,72.40
2017-06-19T04:34:33.190Z,72.00
2017-06-19T04:37:00.157Z,71.90
2017-06-19T04:39:27.441Z,70.40
2017-06-19T04:41:54.372Z,70.40
2017-06-19T04:44:21.297Z,70.50
2017-06-19T04:46:48.193Z,69.50
2017-06-19T04:49:15.118Z,69.50
2017-06-19T04:51:42.010Z,69.20
2017-06-19T04:54:08.894Z,69.20
2017-06-19T04:56:36.217Z,69.00
2017-06-19T04:59:03.190Z,69.00
2017-06-19T05:01:30.534Z,68.60
2017-06-19T05:03:57.458Z,68.60
2017-06-19T05:06:24.333Z,68.50
2017-06-19T05:08:51.618Z,67.90
2017-06-19T05:11:18.729Z,67.90
2017-06-19T05:13:45.679Z,67.80
2017-06-19T05:16:12.562Z,67.90
2017-06-19T05:18:39.501Z,67.70
2017-06-19T05:21:06.413Z,67.60
2017-06-19T05:23:33.364Z,67.90
2017-06-19T05:26:00.713Z,68.20
2017-06-19T05:28:27.661Z,68.20
2017-06-19T05:30:54.622Z,68.20
2017-06-19T05:33:25.769Z,67.90
2017-06-19T05:35:53.062Z,67.80
2017-06-19T05:38:19.982Z,67.80
2017-06-19T05:40:47.002Z,67.60
2017-06-19T05:43:13.886Z,67.60
2017-06-19T05:45:40.796Z,67.50
2017-06-19T05:48:07.755Z,67.60
2017-06-19T05:50:35.040Z,66.50
2017-06-19T05:53:01.922Z,66.50
2017-06-19T05:55:28.858Z,66.10
2017-06-19T05:57:55.825Z,66.10
2017-06-19T06:00:22.777Z,66.20
2017-06-19T06:02:49.727Z,66.30
2017-06-19T06:05:16.603Z,66.20
2017-06-19T06:07:43.519Z,66.20
2017-06-19T06:10:10.441Z,66.50
2017-06-19T06:12:37.352Z,66.80
2017-06-19T06:15:04.229Z,66.40
2017-06-19T06:17:31.202Z,66.00
2017-06-19T06:19:58.159Z,65.90
2017-06-19T06:22:25.509Z,64.60
2017-06-19T06:24:53.206Z,64.40
2017-06-19T06:27:20.090Z,64.40
2017-06-19T06:29:46.989Z,64.10
2017-06-19T06:32:13.909Z,63.90
2017-06-19T06:34:41.261Z,63.90
2017-06-19T06:37:08.618Z,63.80
2017-06-19T06:39:35.933Z,63.70
2017-06-19T06:42:02.814Z,63.70
2017-06-19T06:44:29.761Z,63.50
2017-06-19T06:46:57.118Z,62.80
2017-06-19T06:49:24.098Z,62.80
2017-06-19T06:51:50.990Z,62.30
2017-06-19T06:54:17.919Z,62.50
2017-06-19T06:56:44.799Z,62.20
2017-06-19T06:59:11.682Z,62.20
2017-06-19T07:01:38.618Z,61.70
2017-06-19T07:04:05.507Z,61.70
2017-06-19T07:06:32.477Z,61.80
2017-06-19T07:08:59.402Z,61.80
2017-06-19T07:11:26.378Z,61.70
2017-06-19T07:13:53.755Z,61.00
2017-06-19T07:16:20.689Z,61.00
2017-06-19T07:18:48.037Z,60.60
2017-06-19T07:21:15.385Z,61.00
2017-06-19T07:23:42.333Z,61.00
2017-06-19T07:26:09.223Z,60.50
2017-06-19T07:28:36.109Z,59.50
2017-06-19T07:31:03.113Z,60.00
2017-06-19T07:33:29.998Z,59.10
2017-06-19T07:35:56.970Z,59.80
2017-06-19T07:38:24.301Z,58.70
2017-06-19T07:40:51.265Z,58.70
2017-06-19T07:43:18.255Z,58.80
2017-06-19T07:45:45.467Z,58.60
2017-06-19T07:48:12.386Z,59.00
2017-06-19T07:50:39.285Z,57.80
2017-06-19T07:53:06.274Z,57.10
2017-06-19T07:55:33.184Z,57.10
2017-06-19T07:58:00.070Z,57.50
2017-06-19T08:00:27.010Z,57.00
2017-06-19T08:02:53.889Z,56.70
2017-06-19T08:05:21.246Z,57.00
2017-06-19T08:07:48.293Z,57.00
2017-06-19T08:10:15.174Z,56.70
2017-06-19T08:12:42.077Z,56.40
2017-06-19T08:15:09.001Z,56.40
2017-06-19T08:17:35.973Z,56.60
2017-06-19T08:20:02.893Z,56.40
2017-06-19T08:22:29.781Z,55.60
2017-06-19T08:24:57.121Z,55.60
2017-06-19T08:27:24.093Z,55.60
2017-06-19T08:29:51.363Z,54.80
2017-06-19T08:32:18.277Z,54.80
2017-06-19T08:34:45.589Z,54.40
2017-06-19T08:37:12.566Z,54.40
2017-06-19T08:39:39.445Z,55.40
2017-06-19T08:42:06.462Z,54.80
2017-06-19T08:44:33.358Z,54.10
2017-06-19T08:47:00.246Z,53.90
2017-06-19T08:49:27.209Z,54.00
2017-06-19T08:51:54.550Z,53.10
2017-06-19T08:54:21.598Z,53.10
2017-06-19T08:56:48.532Z,53.70
2017-06-19T08:59:15.501Z,53.60
2017-06-19T09:01:42.553Z,53.90
2017-06-19T09:04:09.902Z,53.40
2017-06-19T09:06:36.841Z,53.40
2017-06-19T09:09:03.726Z,53.40
2017-06-19T09:11:30.646Z,53.50
2017-06-19T09:13:58.002Z,53.70
2017-06-19T09:16:25.286Z,53.90
2017-06-19T09:18:52.294Z,53.90
2017-06-19T09:21:19.174Z,53.80
2017-06-19T09:23:46.081Z,54.00
2017-06-19T09:26:14.266Z,54.10
2017-06-19T09:28:41.633Z,54.40
2017-06-19T09:31:08.990Z,54.40
2017-06-19T09:33:36.330Z,53.70
2017-06-19T09:36:03.285Z,53.70
2017-06-19T09:38:30.561Z,54.20
2017-06-19T09:40:57.582Z,54.30
2017-06-19T09:43:24.469Z,53.90
2017-06-19T09:45:51.366Z,54.00
2017-06-19T09:48:18.329Z,53.60
2017-06-19T09:50:45.673Z,53.10
2017-06-19T09:53:12.550Z,53.10
2017-06-19T09:55:39.569Z,52.90
2017-06-19T09:58:06.962Z,51.60
2017-06-19T10:00:33.838Z,51.60
2017-06-19T10:03:00.765Z,51.00
2017-06-19T10:05:27.702Z,50.40
2017-06-19T10:07:54.585Z,51.00
2017-06-19T10:10:21.639Z,51.10
2017-06-19T10:12:48.525Z,51.10
2017-06-19T10:15:15.489Z,51.10
2017-06-19T10:17:42.433Z,51.00
2017-06-19T10:20:09.323Z,51.30
2017-06-19T10:22:36.206Z,51.70
2017-06-19T10:25:03.142Z,51.20
2017-06-19T10:27:30.026Z,51.40
2017-06-19T10:29:57.313Z,50.60
2017-06-19T10:32:24.317Z,50.60
2017-06-19T10:34:51.266Z,50.40
2017-06-19T10:37:18.209Z,50.20
2017-06-19T10:39:45.163Z,50.40
2017-06-19T10:42:12.102Z,51.50
2017-06-19T10:44:39.093Z,51.20
2017-06-19T10:47:06.010Z,50.80
2017-06-19T10:49:33.293Z,50.30
2017-06-19T10:52:00.170Z,50.40
2017-06-19T10:54:27.141Z,51.20
2017-06-19T10:56:54.030Z,50.90
2017-06-19T10:59:20.937Z,51.00
2017-06-19T11:01:48.261Z,50.60
2017-06-19T11:04:15.241Z,50.60
2017-06-19T11:06:42.593Z,50.90
2017-06-19T11:09:09.521Z,50.90
2017-06-19T11:11:36.487Z,50.70
2017-06-19T11:14:03.430Z,50.50
2017-06-19T11:16:30.357Z,50.50
2017-06-19T11:18:57.322Z,50.60
2017-06-19T11:21:24.206Z,50.40
2017-06-19T11:23:51.138Z,50.30
2017-06-19T11:26:18.021Z,50.00
2017-06-19T11:28:44.947Z,50.00
2017-06-19T11:31:11.882Z,49.90
2017-06-19T11:33:38.841Z,49.70
2017-06-19T11:36:05.789Z,49.50
2017-06-19T11:38:32.710Z,49.40
2017-06-19T11:40:59.989Z,49.60
2017-06-19T11:43:26.889Z,49.60
2017-06-19T11:45:53.825Z,49.30
2017-06-19T11:48:20.705Z,49.60
2017-06-19T11:50:47.638Z,49.40
2017-06-19T11:53:14.977Z,49.50
2017-06-19T11:55:41.870Z,49.50
2017-06-19T11:58:08.816Z,49.10
2017-06-19T12:00:35.735Z,48.80
2017-06-19T12:03:03.070Z,49.20
2017-06-19T12:05:30.029Z,49.20
2017-06-19T12:07:57.342Z,49.60
2017-06-19T12:10:24.973Z,49.60
2017-06-19T12:12:51.857Z,48.90
2017-06-19T12:15:18.833Z,48.70
2017-06-19T12:17:45.714Z,48.00
2017-06-19T12:20:12.601Z,48.10
2017-06-19T12:22:39.542Z,48.30
2017-06-19T12:25:06.455Z,48.10
2017-06-19T12:27:33.572Z,48.00
2017-06-19T12:30:00.854Z,48.40
2017-06-19T12:32:27.774Z,48.30
2017-06-19T12:34:55.101Z,48.20
2017-06-19T12:37:22.066Z,48.20
2017-06-19T12:39:49.009Z,47.80
2017-06-19T12:42:15.957Z,47.80
2017-06-19T12:44:42.849Z,47.70
2017-06-19T12:47:09.733Z,48.50
2017-06-19T12:49:36.697Z,48.10
2017-06-19T12:52:03.578Z,48.20
2017-06-19T12:54:30.481Z,47.90
2017-06-19T12:56:57.434Z,48.10
2017-06-19T12:59:24.324Z,48.00
2017-06-19T13:01:51.225Z,48.30
2017-06-19T13:04:18.179Z,48.00
2017-06-19T13:06:45.061Z,47.50
2017-06-19T13:09:11.945Z,47.90
2017-06-19T13:11:38.882Z,47.40
2017-06-19T13:14:05.771Z,47.80
2017-06-19T13:16:33.112Z,47.90
2017-06-19T13:19:00.054Z,47.90
2017-06-19T13:21:27.002Z,47.70
2017-06-19T13:23:53.922Z,47.80
2017-06-19T13:26:20.859Z,47.60
2017-06-19T13:28:47.837Z,47.60
2017-06-19T13:31:15.161Z,47.50
2017-06-19T13:33:42.095Z,47.50
2017-06-19T13:36:08.973Z,48.30
2017-06-19T13:38:35.859Z,48.30
2017-06-19T13:41:02.794Z,48.30
2017-06-19T13:43:30.129Z,48.00
2017-06-19T13:45:57.085Z,48.00
2017-06-19T13:48:24.410Z,48.20
2017-06-19T13:50:51.297Z,48.30
2017-06-19T13:53:18.197Z,48.10
2017-06-19T13:55:45.172Z,48.50
2017-06-19T13:58:12.122Z,47.70
2017-06-19T14:00:39.090Z,48.30
2017-06-19T14:03:06.111Z,48.00
2017-06-19T14:05:33.069Z,47.70
2017-06-19T14:08:00.347Z,47.60
2017-06-19T14:10:27.373Z,47.60
2017-06-19T14:12:54.717Z,48.40
2017-06-19T14:15:21.706Z,48.40
2017-06-19T14:17:48.590Z,48.10
2017-06-19T14:20:15.474Z,48.10
2017-06-19T14:22:42.937Z,47.80
2017-06-19T14:25:09.832Z,47.90
2017-06-19T14:27:36.812Z,48.10
2017-06-19T14:30:03.737Z,47.70
2017-06-19T14:32:30.643Z,47.90
2017-06-19T14:34:57.523Z,47.20
2017-06-19T14:37:24.454Z,46.40
2017-06-19T14:39:51.338Z,46.30
2017-06-19T14:42:18.620Z,47.30
2017-06-19T14:44:45.571Z,47.30
2017-06-19T14:47:12.473Z,47.50
2017-06-19T14:49:39.433Z,47.20
2017-06-19T14:52:06.782Z,47.50
2017-06-19T14:54:33.661Z,47.50
2017-06-19T14:57:00.573Z,47.60
2017-06-19T14:59:27.530Z,46.90
2017-06-19T15:01:54.817Z,46.40
2017-06-19T15:04:21.697Z,46.40
2017-06-19T15:06:48.666Z,47.00
2017-06-19T15:09:15.550Z,47.00
2017-06-19T15:11:42.453Z,47.10
2017-06-19T15:14:09.813Z,46.90
2017-06-19T15:16:36.702Z,46.90
2017-06-19T15:19:03.615Z,46.80
2017-06-19T15:21:30.956Z,46.30
2017-06-19T15:23:57.853Z,46.30
2017-06-19T15:26:24.862Z,46.30
2017-06-19T15:28:52.174Z,46.50
2017-06-19T15:31:19.053Z,46.40
2017-06-19T15:33:46.329Z,45.60
2017-06-19T15:36:13.357Z,45.60
2017-06-19T15:38:40.713Z,45.40
2017-06-19T15:41:07.993Z,45.80
2017-06-19T15:43:34.949Z,45.80
2017-06-19T15:46:01.840Z,46.10
2017-06-19T15:48:28.726Z,46.20
2017-06-19T15:50:55.746Z,46.10
2017-06-19T15:53:22.737Z,46.00
2017-06-19T15:55:49.634Z,46.80
2017-06-19T15:58:16.602Z,46.10
2017-06-19T16:00:43.877Z,45.40
2017-06-19T16:03:10.782Z,45.50
2017-06-19T16:05:37.765Z,45.90
2017-06-19T16:08:04.680Z,46.10
2017-06-19T16:10:32.034Z,46.60
2017-06-19T16:12:58.982Z,46.60
2017-06-19T16:15:25.930Z,46.60
2017-06-19T16:17:52.880Z,47.20
2017-06-19T16:20:20.229Z,46.70
2017-06-19T16:22:47.154Z,46.70
2017-06-19T16:25:14.030Z,45.80
2017-06-19T16:27:41.374Z,47.20
2017-06-19T16:30:08.324Z,47.20
2017-06-19T16:32:35.270Z,44.90
2017-06-19T16:35:02.474Z,44.50
2017-06-19T16:37:29.353Z,44.20
2017-06-19T16:39:56.238Z,43.30
2017-06-19T16:42:23.174Z,43.10
2017-06-19T16:44:50.070Z,42.80
2017-06-19T16:47:16.949Z,41.60
2017-06-19T16:49:43.875Z,42.20
2017-06-19T16:52:10.762Z,40.60
2017-06-19T16:54:38.046Z,40.10
2017-06-19T16:57:05.037Z,40.10
2017-06-19T16:59:31.990Z,39.30
2017-06-19T17:01:58.884Z,38.80
2017-06-19T17:04:25.877Z,39.10
2017-06-19T17:06:52.760Z,38.70
2017-06-19T17:09:19.672Z,38.10
2017-06-19T17:11:46.613Z,38.10
2017-06-19T17:14:13.550Z,37.50
2017-06-19T17:16:40.437Z,37.00
2017-06-19T17:19:07.499Z,37.50
2017-06-19T17:21:34.403Z,37.80
2017-06-19T17:24:01.297Z,37.20
2017-06-19T17:26:28.245Z,37.00
2017-06-19T17:28:55.125Z,37.10
2017-06-19T17:31:22.093Z,36.90
2017-06-19T17:33:49.473Z,36.90
2017-06-19T17:36:16.363Z,36.90
2017-06-19T17:38:43.275Z,37.30
2017-06-19T17:41:10.262Z,37.00
2017-06-19T17:43:37.198Z,37.20
2017-06-19T17:46:04.177Z,37.60
2017-06-19T17:48:31.116Z,38.10
2017-06-19T17:50:58.083Z,38.10
2017-06-19T17:53:25.357Z,38.20
2017-06-19T17:55:52.354Z,38.20
2017-06-19T17:58:19.339Z,38.60
2017-06-19T18:00:46.306Z,39.50
2017-06-19T18:03:13.187Z,40.50
2017-06-19T18:05:40.121Z,41.30
2017-06-19T18:08:07.009Z,41.90
2017-06-19T18:10:34.302Z,43.40
2017-06-19T18:13:01.217Z,43.40
2017-06-19T18:15:28.495Z,44.80
2017-06-19T18:17:55.421Z,44.80
2017-06-19T18:20:22.745Z,45.50
2017-06-19T18:22:49.634Z,45.50
2017-06-19T18:25:16.545Z,45.80
2017-06-19T18:27:43.501Z,46.20
2017-06-19T18:30:10.854Z,47.10
2017-06-19T18:32:38.137Z,47.70
2017-06-19T18:35:05.150Z,47.70
2017-06-19T18:37:32.045Z,48.40
2017-06-19T18:39:58.928Z,47.80
2017-06-19T18:42:25.853Z,48.40
2017-06-19T18:44:52.774Z,48.60
2017-06-19T18:47:19.659Z,48.70
2017-06-19T18:49:46.621Z,49.30
2017-06-19T18:52:16.314Z,49.10
2017-06-19T18:54:43.291Z,49.60
2017-06-19T18:57:10.634Z,49.70
2017-06-19T18:59:37.586Z,49.70
2017-06-19T19:02:04.474Z,49.80
2017-06-19T19:04:31.477Z,49.60
2017-06-19T19:06:58.450Z,50.10
2017-06-19T19:09:25.728Z,50.20
2017-06-19T19:11:52.725Z,50.30
2017-06-19T19:14:19.617Z,51.00
2017-06-19T19:16:46.525Z,51.60
2017-06-19T19:19:13.917Z,53.20
2017-06-19T19:21:40.802Z,53.20
2017-06-19T19:24:07.770Z,54.00
2017-06-19T19:26:34.650Z,54.50
2017-06-19T19:29:01.554Z,54.70
2017-06-19T19:31:28.509Z,55.20
2017-06-19T19:33:55.786Z,55.60
2017-06-19T19:36:22.673Z,55.60
2017-06-19T19:38:49.599Z,55.50
2017-06-19T19:41:16.481Z,55.50
2017-06-19T19:43:43.370Z,55.50
2017-06-19T19:46:10.298Z,55.40
2017-06-19T19:48:37.641Z,55.80
2017-06-19T19:51:04.594Z,55.80
2017-06-19T19:53:31.977Z,56.00
2017-06-19T19:55:58.951Z,56.00
2017-06-19T19:58:25.864Z,56.40
2017-06-19T20:00:52.810Z,56.70
2017-06-19T20:03:19.706Z,56.80
2017-06-19T20:05:46.673Z,56.70
2017-06-19T20:08:13.949Z,57.00
2017-06-19T20:10:41.222Z,57.00
2017-06-19T20:13:08.117Z,57.00
2017-06-19T20:15:35.037Z,57.30
2017-06-19T20:18:01.946Z,57.30
2017-06-19T20:20:28.905Z,57.40
2017-06-19T20:22:55.825Z,57.80
2017-06-19T20:25:23.117Z,58.30
2017-06-19T20:27:50.025Z,58.30
2017-06-19T20:30:16.967Z,58.20
2017-06-19T20:32:44.309Z,57.90
2017-06-19T20:35:11.217Z,57.90
2017-06-19T20:37:38.155Z,57.90
2017-06-19T20:40:05.054Z,58.10
2017-06-19T20:42:32.002Z,58.40
2017-06-19T20:44:58.946Z,58.60
2017-06-19T20:47:25.830Z,58.80
2017-06-19T20:49:52.883Z,59.10
2017-06-19T20:52:19.796Z,59.30
2017-06-19T20:54:47.085Z,59.60
2017-06-19T20:57:13.977Z,59.50
2017-06-19T20:59:40.930Z,59.30
2017-06-19T21:02:08.217Z,59.50
2017-06-19T21:04:35.137Z,59.50
2017-06-19T21:07:02.485Z,59.70
2017-06-19T21:09:29.434Z,59.70
2017-06-19T21:11:56.368Z,59.90
2017-06-19T21:14:23.290Z,60.00
2017-06-19T21:16:50.187Z,60.20
2017-06-19T21:19:17.484Z,60.40
2017-06-19T21:21:44.473Z,60.40
2017-06-19T21:24:11.418Z,60.50
2017-06-19T21:26:38.305Z,60.40
2017-06-19T21:29:05.229Z,60.50
2017-06-19T21:31:32.577Z,60.70
2017-06-19T21:33:59.874Z,60.70
2017-06-19T21:36:26.797Z,60.70
2017-06-19T21:38:53.682Z,60.60
2017-06-19T21:41:20.679Z,60.40
2017-06-19T21:43:48.013Z,60.70
2017-06-19T21:46:14.921Z,60.70
2017-06-19T21:48:41.809Z,60.70
2017-06-19T21:51:08.734Z,60.70
2017-06-19T21:53:35.614Z,60.70
2017-06-19T21:56:02.521Z,60.70
2017-06-19T21:58:29.481Z,60.80
2017-06-19T22:00:56.369Z,61.00
2017-06-19T22:03:23.260Z,61.00
2017-06-19T22:05:50.179Z,61.10
2017-06-19T22:08:17.113Z,61.10
2017-06-19T22:10:43.993Z,61.20
2017-06-19T22:13:10.997Z,61.30
2017-06-19T22:15:38.049Z,61.20
2017-06-19T22:18:04.999Z,60.80
2017-06-19T22:20:31.945Z,61.00
2017-06-19T22:22:58.890Z,61.00
2017-06-19T22:25:25.846Z,60.70
2017-06-19T22:27:53.298Z,60.70
2017-06-19T22:30:20.237Z,60.70
2017-06-19T22:32:47.121Z,60.90
2017-06-19T22:35:14.234Z,61.10
2017-06-19T22:37:41.118Z,61.30
2017-06-19T22:40:08.025Z,61.40
2017-06-19T22:42:34.980Z,61.70
2017-06-19T22:45:02.333Z,60.90
2017-06-19T22:47:29.223Z,60.90
2017-06-19T22:49:56.194Z,60.80
2017-06-19T22:52:23.089Z,60.70
2017-06-19T22:54:49.997Z,60.90
2017-06-19T22:57:16.966Z,61.20
2017-06-19T22:59:44.413Z,61.00
2017-06-19T23:02:11.379Z,61.10
2017-06-19T23:04:38.705Z,61.10
2017-06-19T23:07:05.670Z,61.10
2017-06-19T23:09:32.613Z,61.50
2017-06-19T23:11:59.712Z,61.60
2017-06-19T23:14:26.601Z,61.60
2017-06-19T23:16:53.985Z,61.50
2017-06-19T23:19:21.310Z,61.90
2017-06-19T23:21:48.280Z,61.90
2017-06-19T23:24:15.217Z,61.70
2017-06-19T23:26:42.150Z,61.90
2017-06-19T23:29:09.116Z,62.00
2017-06-19T23:31:36.067Z,62.40
2017-06-19T23:34:03.406Z,62.40
2017-06-19T23:36:30.301Z,62.50
2017-06-19T23:38:57.185Z,62.90
2017-06-19T23:41:24.115Z,63.20
2017-06-19T23:43:51.005Z,63.20
2017-06-19T23:46:18.290Z,63.50
2017-06-19T23:48:45.301Z,63.50
2017-06-19T23:51:12.250Z,63.70
2017-06-19T23:53:39.530Z,63.70
2017-06-19T23:56:06.465Z,63.70
2017-06-19T23:58:33.794Z,64.30
